sensor_id;sensor_type;location;lat;lon;timestamp;pressure;altitude;pressure_sealevel;temperature;humidity
30073;BME280;16897;52.422;13.678;2023-03-04T00:00:42;101491.59;;;6.24;55.42
30073;BME280;16897;52.422;13.678;2023-03-04T00:04:46;101502.78;;;6.26;55.48
30073;BME280;16897;52.422;13.678;2023-03-04T00:08:47;101488.22;;;6.20;55.45
30073;BME280;16897;52.422;13.678;2023-03-04T00:12:49;101463.44;;;6.09;55.39
30073;BME280;16897;52.422;13.678;2023-03-04T00:16:51;101420.78;;;5.85;55.56
30073;BME280;16897;52.422;13.678;2023-03-04T00:20:53;101464.28;;;6.09;55.40
30073;BME280;16897;52.422;13.678;2023-03-04T00:24:55;101466.00;;;6.10;55.54
30073;BME280;16897;52.422;13.678;2023-03-04T00:28:56;101459.09;;;6.09;55.41
30073;BME280;16897;52.422;13.678;2023-03-04T00:32:58;101454.94;;;6.04;55.36
30073;BME280;16897;52.422;13.678;2023-03-04T00:37:00;101433.53;;;5.95;55.55
30073;BME280;16897;52.422;13.678;2023-03-04T00:41:04;101412.44;;;5.73;55.48
30073;BME280;16897;52.422;13.678;2023-03-04T00:45:06;101449.09;;;5.94;55.42
30073;BME280;16897;52.422;13.678;2023-03-04T00:49:08;101404.81;;;5.67;55.40
30073;BME280;16897;52.422;13.678;2023-03-04T00:53:09;101390.41;;;5.55;55.57
30073;BME280;16897;52.422;13.678;2023-03-04T00:57:12;101439.84;;;5.84;55.42
30073;BME280;16897;52.422;13.678;2023-03-04T01:01:13;101372.25;;;5.57;55.35
30073;BME280;16897;52.422;13.678;2023-03-04T01:05:15;101377.50;;;5.54;55.33
30073;BME280;16897;52.422;13.678;2023-03-04T01:09:17;101355.38;;;5.41;55.56
30073;BME280;16897;52.422;13.678;2023-03-04T01:13:18;101358.13;;;5.33;55.45
30073;BME280;16897;52.422;13.678;2023-03-04T01:17:20;101331.72;;;5.17;55.65
30073;BME280;16897;52.422;13.678;2023-03-04T01:21:22;101422.81;;;5.72;55.63
30073;BME280;16897;52.422;13.678;2023-03-04T01:25:24;101350.19;;;5.41;55.63
30073;BME280;16897;52.422;13.678;2023-03-04T01:29:26;101374.72;;;5.62;55.41
30073;BME280;16897;52.422;13.678;2023-03-04T01:33:30;101384.94;;;5.68;55.50
30073;BME280;16897;52.422;13.678;2023-03-04T01:37:32;101355.06;;;5.53;55.54
30073;BME280;16897;52.422;13.678;2023-03-04T01:41:33;101401.03;;;5.81;55.52
30073;BME280;16897;52.422;13.678;2023-03-04T01:45:35;101374.50;;;5.71;55.62
30073;BME280;16897;52.422;13.678;2023-03-04T01:49:37;101384.81;;;5.72;55.56
30073;BME280;16897;52.422;13.678;2023-03-04T01:53:39;101389.88;;;5.77;55.56
30073;BME280;16897;52.422;13.678;2023-03-04T01:57:41;101396.78;;;5.78;55.69
30073;BME280;16897;52.422;13.678;2023-03-04T02:01:45;101368.41;;;5.72;55.56
30073;BME280;16897;52.422;13.678;2023-03-04T02:05:48;101357.28;;;5.68;55.58
30073;BME280;16897;52.422;13.678;2023-03-04T02:09:50;101377.72;;;5.81;55.60
30073;BME280;16897;52.422;13.678;2023-03-04T02:13:52;101342.63;;;5.67;55.82
30073;BME280;16897;52.422;13.678;2023-03-04T02:17:55;101350.97;;;5.79;55.59
30073;BME280;16897;52.422;13.678;2023-03-04T02:21:57;101337.22;;;5.76;55.62
30073;BME280;16897;52.422;13.678;2023-03-04T02:26:16;101335.34;;;5.82;55.76
30073;BME280;16897;52.422;13.678;2023-03-04T02:30:22;101326.69;;;5.83;55.53
30073;BME280;16897;52.422;13.678;2023-03-04T02:34:28;101345.38;;;5.97;55.83
30073;BME280;16897;52.422;13.678;2023-03-04T02:38:30;101259.34;;;5.48;55.58
30073;BME280;16897;52.422;13.678;2023-03-04T02:42:32;101327.22;;;5.97;55.62
30073;BME280;16897;52.422;13.678;2023-03-04T02:46:34;101316.03;;;5.95;55.79
30073;BME280;16897;52.422;13.678;2023-03-04T02:50:40;101291.31;;;5.80;55.46
30073;BME280;16897;52.422;13.678;2023-03-04T02:54:43;101270.72;;;5.75;55.69
30073;BME280;16897;52.422;13.678;2023-03-04T02:58:45;101321.59;;;6.12;55.67
30073;BME280;16897;52.422;13.678;2023-03-04T03:02:47;101301.94;;;6.05;55.86
30073;BME280;16897;52.422;13.678;2023-03-04T03:06:49;101312.81;;;6.18;55.78
30073;BME280;16897;52.422;13.678;2023-03-04T03:10:50;101286.31;;;6.07;55.63
30073;BME280;16897;52.422;13.678;2023-03-04T03:14:52;101262.47;;;5.94;55.67
30073;BME280;16897;52.422;13.678;2023-03-04T03:18:55;101273.34;;;6.08;55.86
30073;BME280;16897;52.422;13.678;2023-03-04T03:22:59;101296.22;;;6.24;55.84
30073;BME280;16897;52.422;13.678;2023-03-04T03:27:00;101278.31;;;6.16;55.64
30073;BME280;16897;52.422;13.678;2023-03-04T03:31:02;101293.50;;;6.28;55.71
30073;BME280;16897;52.422;13.678;2023-03-04T03:35:03;101288.22;;;6.31;55.82
30073;BME280;16897;52.422;13.678;2023-03-04T03:39:05;101264.22;;;6.25;55.71
30073;BME280;16897;52.422;13.678;2023-03-04T03:43:07;101264.25;;;6.23;55.87
30073;BME280;16897;52.422;13.678;2023-03-04T03:47:09;101257.38;;;6.22;55.76
30073;BME280;16897;52.422;13.678;2023-03-04T03:51:10;101277.63;;;6.40;55.82
30073;BME280;16897;52.422;13.678;2023-03-04T03:55:12;101261.22;;;6.38;55.84
30073;BME280;16897;52.422;13.678;2023-03-04T03:59:14;101265.50;;;6.39;55.86
30073;BME280;16897;52.422;13.678;2023-03-04T04:03:15;101250.22;;;6.30;55.85
30073;BME280;16897;52.422;13.678;2023-03-04T04:07:17;101267.06;;;6.45;55.96
30073;BME280;16897;52.422;13.678;2023-03-04T04:11:19;101223.59;;;6.24;55.79
30073;BME280;16897;52.422;13.678;2023-03-04T04:15:21;101259.28;;;6.45;55.90
30073;BME280;16897;52.422;13.678;2023-03-04T04:19:22;101197.97;;;6.14;55.75
30073;BME280;16897;52.422;13.678;2023-03-04T04:23:24;101258.41;;;6.46;55.76
30073;BME280;16897;52.422;13.678;2023-03-04T04:27:25;101251.38;;;6.50;55.90
30073;BME280;16897;52.422;13.678;2023-03-04T04:31:27;101246.19;;;6.50;55.82
30073;BME280;16897;52.422;13.678;2023-03-04T04:35:32;101191.00;;;6.16;55.66
30073;BME280;16897;52.422;13.678;2023-03-04T04:39:35;101223.06;;;6.42;55.73
30073;BME280;16897;52.422;13.678;2023-03-04T04:43:36;101165.38;;;6.06;55.81
30073;BME280;16897;52.422;13.678;2023-03-04T04:47:38;101188.13;;;6.26;55.69
30073;BME280;16897;52.422;13.678;2023-03-04T04:51:40;101234.75;;;6.57;55.73
30073;BME280;16897;52.422;13.678;2023-03-04T04:55:41;101237.25;;;6.60;55.72
30073;BME280;16897;52.422;13.678;2023-03-04T04:59:43;101239.63;;;6.68;55.80
30073;BME280;16897;52.422;13.678;2023-03-04T05:03:45;101224.31;;;6.58;55.92
30073;BME280;16897;52.422;13.678;2023-03-04T05:07:47;101231.94;;;6.64;55.88
30073;BME280;16897;52.422;13.678;2023-03-04T05:11:49;101227.50;;;6.67;55.82
30073;BME280;16897;52.422;13.678;2023-03-04T05:15:53;101215.66;;;6.59;55.94
30073;BME280;16897;52.422;13.678;2023-03-04T05:19:55;101210.50;;;6.58;55.93
30073;BME280;16897;52.422;13.678;2023-03-04T05:23:57;101207.78;;;6.61;55.84
30073;BME280;16897;52.422;13.678;2023-03-04T05:27:58;101229.88;;;6.74;55.91
30073;BME280;16897;52.422;13.678;2023-03-04T05:32:02;101193.34;;;6.54;55.85
30073;BME280;16897;52.422;13.678;2023-03-04T05:36:04;101224.69;;;6.74;55.77
30073;BME280;16897;52.422;13.678;2023-03-04T05:55:13;101211.84;;;6.70;55.78
30073;BME280;16897;52.422;13.678;2023-03-04T05:59:14;101224.44;;;6.82;55.94
30073;BME280;16897;52.422;13.678;2023-03-04T06:03:21;101224.31;;;6.86;55.75
30073;BME280;16897;52.422;13.678;2023-03-04T06:07:23;101201.44;;;6.71;55.82
30073;BME280;16897;52.422;13.678;2023-03-04T06:11:24;101172.25;;;6.64;55.76
30073;BME280;16897;52.422;13.678;2023-03-04T06:15:25;101207.09;;;6.84;55.97
30073;BME280;16897;52.422;13.678;2023-03-04T06:19:27;101145.94;;;6.49;55.86
30073;BME280;16897;52.422;13.678;2023-03-04T06:23:29;101219.66;;;6.96;55.77
30073;BME280;16897;52.422;13.678;2023-03-04T06:27:31;101220.56;;;6.95;55.85
30073;BME280;16897;52.422;13.678;2023-03-04T06:31:32;101212.88;;;6.92;56.03
30073;BME280;16897;52.422;13.678;2023-03-04T06:35:34;101204.34;;;6.89;56.05
30073;BME280;16897;52.422;13.678;2023-03-04T06:54:47;101233.06;;;7.11;56.13
30073;BME280;16897;52.422;13.678;2023-03-04T06:58:48;101229.56;;;7.12;55.97
30073;BME280;16897;52.422;13.678;2023-03-04T07:02:50;101232.84;;;7.17;56.00
30073;BME280;16897;52.422;13.678;2023-03-04T07:06:52;101241.44;;;7.19;56.06
30073;BME280;16897;52.422;13.678;2023-03-04T07:10:53;101206.53;;;7.01;55.99
30073;BME280;16897;52.422;13.678;2023-03-04T07:14:55;101236.91;;;7.25;56.01
30073;BME280;16897;52.422;13.678;2023-03-04T07:18:57;101215.47;;;7.19;55.97
30073;BME280;16897;52.422;13.678;2023-03-04T07:22:58;101235.94;;;7.28;56.00
30073;BME280;16897;52.422;13.678;2023-03-04T07:26:59;101229.06;;;7.27;56.07
30073;BME280;16897;52.422;13.678;2023-03-04T07:31:13;101245.38;;;7.30;56.17
30073;BME280;16897;52.422;13.678;2023-03-04T07:35:19;101213.75;;;7.18;56.04
30073;BME280;16897;52.422;13.678;2023-03-04T07:39:20;101229.94;;;7.26;56.03
30073;BME280;16897;52.422;13.678;2023-03-04T07:43:22;101223.91;;;7.25;56.08
30073;BME280;16897;52.422;13.678;2023-03-04T07:47:23;101235.72;;;7.34;56.01
30073;BME280;16897;52.422;13.678;2023-03-04T07:51:26;101245.16;;;7.37;55.95
30073;BME280;16897;52.422;13.678;2023-03-04T07:55:27;101238.88;;;7.44;56.24
30073;BME280;16897;52.422;13.678;2023-03-04T07:59:31;101234.59;;;7.43;56.13
30073;BME280;16897;52.422;13.678;2023-03-04T08:03:32;101224.28;;;7.40;56.25
30073;BME280;16897;52.422;13.678;2023-03-04T08:07:34;101243.81;;;7.51;56.06
30073;BME280;16897;52.422;13.678;2023-03-04T08:11:36;101213.75;;;7.44;56.05
30073;BME280;16897;52.422;13.678;2023-03-04T08:15:39;101215.53;;;7.42;56.22
30073;BME280;16897;52.422;13.678;2023-03-04T08:19:42;101220.44;;;7.51;56.28
30073;BME280;16897;52.422;13.678;2023-03-04T08:23:44;101229.63;;;7.62;56.11
30073;BME280;16897;52.422;13.678;2023-03-04T08:27:46;101185.38;;;7.38;56.22
30073;BME280;16897;52.422;13.678;2023-03-04T08:31:50;101217.56;;;7.59;56.36
30073;BME280;16897;52.422;13.678;2023-03-04T08:35:52;101218.25;;;7.64;56.45
30073;BME280;16897;52.422;13.678;2023-03-04T08:39:54;101217.09;;;7.73;56.19
30073;BME280;16897;52.422;13.678;2023-03-04T08:43:56;101179.59;;;7.55;56.42
30073;BME280;16897;52.422;13.678;2023-03-04T08:47:57;101198.09;;;7.71;56.32
30073;BME280;16897;52.422;13.678;2023-03-04T08:52:00;101198.69;;;7.78;56.30
30073;BME280;16897;52.422;13.678;2023-03-04T08:56:02;101193.34;;;7.82;56.29
30073;BME280;16897;52.422;13.678;2023-03-04T09:00:04;101209.63;;;7.87;56.45
30073;BME280;16897;52.422;13.678;2023-03-04T09:04:05;101184.66;;;7.83;56.30
30073;BME280;16897;52.422;13.678;2023-03-04T09:08:07;101191.44;;;7.87;56.30
30073;BME280;16897;52.422;13.678;2023-03-04T09:12:08;101155.69;;;7.69;56.30
30073;BME280;16897;52.422;13.678;2023-03-04T09:16:11;101198.88;;;7.96;56.25
30073;BME280;16897;52.422;13.678;2023-03-04T09:20:13;101213.53;;;7.99;56.40
30073;BME280;16897;52.422;13.678;2023-03-04T09:24:15;101147.91;;;7.69;56.49
30073;BME280;16897;52.422;13.678;2023-03-04T09:28:17;101208.16;;;8.04;56.28
30073;BME280;16897;52.422;13.678;2023-03-04T09:32:19;101199.53;;;8.03;56.48
30073;BME280;16897;52.422;13.678;2023-03-04T09:36:20;101195.28;;;8.01;56.34
30073;BME280;16897;52.422;13.678;2023-03-04T09:40:26;101203.69;;;8.07;56.47
30073;BME280;16897;52.422;13.678;2023-03-04T09:44:36;101211.16;;;8.16;56.43
30073;BME280;16897;52.422;13.678;2023-03-04T09:48:47;101190.75;;;8.06;56.45
30073;BME280;16897;52.422;13.678;2023-03-04T10:01:41;101218.56;;;8.27;56.46
30073;BME280;16897;52.422;13.678;2023-03-04T10:09:54;101186.66;;;8.22;56.29
30073;BME280;16897;52.422;13.678;2023-03-04T10:14:21;101207.72;;;8.39;56.54
30073;BME280;16897;52.422;13.678;2023-03-04T10:18:45;101137.47;;;7.94;56.32
30073;BME280;16897;52.422;13.678;2023-03-04T10:22:57;101195.72;;;8.35;56.31
30073;BME280;16897;52.422;13.678;2023-03-04T10:27:01;101201.50;;;8.44;56.24
30073;BME280;16897;52.422;13.678;2023-03-04T10:35:13;101196.84;;;8.52;56.48
30073;BME280;16897;52.422;13.678;2023-03-04T10:39:20;101191.00;;;8.45;56.38
30073;BME280;16897;52.422;13.678;2023-03-04T10:43:23;101193.94;;;8.59;56.38
30073;BME280;16897;52.422;13.678;2023-03-04T10:47:26;101184.38;;;8.60;56.27
30073;BME280;16897;52.422;13.678;2023-03-04T10:51:28;101203.00;;;8.71;56.37
30073;BME280;16897;52.422;13.678;2023-03-04T10:55:43;101205.28;;;8.80;56.49
30073;BME280;16897;52.422;13.678;2023-03-04T10:59:45;101199.00;;;8.84;56.20
30073;BME280;16897;52.422;13.678;2023-03-04T11:03:48;101174.25;;;8.74;56.31
30073;BME280;16897;52.422;13.678;2023-03-04T11:07:54;101173.47;;;8.72;56.42
30073;BME280;16897;52.422;13.678;2023-03-04T11:12:01;101200.59;;;8.89;56.29
30073;BME280;16897;52.422;13.678;2023-03-04T11:16:04;101146.47;;;8.53;56.19
30073;BME280;16897;52.422;13.678;2023-03-04T11:20:44;101187.56;;;8.89;56.36
30073;BME280;16897;52.422;13.678;2023-03-04T11:25:01;101159.91;;;8.64;56.38
30073;BME280;16897;52.422;13.678;2023-03-04T11:38:03;101216.09;;;8.92;56.38
30073;BME280;16897;52.422;13.678;2023-03-04T11:42:20;101207.63;;;8.86;56.25
30073;BME280;16897;52.422;13.678;2023-03-04T11:46:27;101212.53;;;8.94;56.28
30073;BME280;16897;52.422;13.678;2023-03-04T12:16:28;101204.13;;;9.08;56.23
30073;BME280;16897;52.422;13.678;2023-03-04T12:29:35;101176.59;;;9.02;56.00
30073;BME280;16897;52.422;13.678;2023-03-04T12:42:26;101201.22;;;9.16;56.04
30073;BME280;16897;52.422;13.678;2023-03-04T12:55:07;101189.41;;;9.07;56.01
30073;BME280;16897;52.422;13.678;2023-03-04T12:59:15;101192.66;;;9.12;55.93
30073;BME280;16897;52.422;13.678;2023-03-04T13:03:50;101198.53;;;9.17;55.92
30073;BME280;16897;52.422;13.678;2023-03-04T13:12:21;101206.47;;;9.14;56.06
30073;BME280;16897;52.422;13.678;2023-03-04T13:16:31;101200.47;;;9.12;55.91
30073;BME280;16897;52.422;13.678;2023-03-04T13:20:36;101163.25;;;8.88;55.88
30073;BME280;16897;52.422;13.678;2023-03-04T13:24:46;101175.78;;;9.00;55.96
30073;BME280;16897;52.422;13.678;2023-03-04T13:29:29;101182.78;;;9.00;55.82
30073;BME280;16897;52.422;13.678;2023-03-04T13:37:36;101192.78;;;9.09;55.89
30073;BME280;16897;52.422;13.678;2023-03-04T13:41:47;101202.94;;;9.15;55.77
30073;BME280;16897;52.422;13.678;2023-03-04T13:45:50;101192.09;;;9.05;55.78
30073;BME280;16897;52.422;13.678;2023-03-04T13:50:28;101209.03;;;9.16;55.76
30073;BME280;16897;52.422;13.678;2023-03-04T13:54:31;101179.09;;;9.04;55.62
30073;BME280;16897;52.422;13.678;2023-03-04T13:58:33;101184.44;;;9.01;55.60
30073;BME280;16897;52.422;13.678;2023-03-04T14:02:35;101204.06;;;9.09;55.70
30073;BME280;16897;52.422;13.678;2023-03-04T14:06:41;101182.63;;;9.03;55.76
30073;BME280;16897;52.422;13.678;2023-03-04T14:10:42;101191.94;;;9.08;55.60
30073;BME280;16897;52.422;13.678;2023-03-04T14:14:46;101206.47;;;9.14;55.55
30073;BME280;16897;52.422;13.678;2023-03-04T14:19:00;101183.66;;;8.99;55.51
30073;BME280;16897;52.422;13.678;2023-03-04T14:23:22;101153.94;;;8.82;55.66
30073;BME280;16897;52.422;13.678;2023-03-04T14:27:25;101156.41;;;8.85;55.63
30073;BME280;16897;52.422;13.678;2023-03-04T14:31:28;101176.63;;;9.01;55.47
30073;BME280;16897;52.422;13.678;2023-03-04T14:35:30;101193.78;;;9.06;55.55
30073;BME280;16897;52.422;13.678;2023-03-04T14:39:32;101200.44;;;9.14;55.32
30073;BME280;16897;52.422;13.678;2023-03-04T14:44:33;101202.25;;;9.12;55.32
30073;BME280;16897;52.422;13.678;2023-03-04T14:48:15;101177.69;;;8.97;55.33
30073;BME280;16897;52.422;13.678;2023-03-04T14:52:35;101197.22;;;9.07;55.50
30073;BME280;16897;52.422;13.678;2023-03-04T14:56:42;101170.25;;;8.88;55.40
30073;BME280;16897;52.422;13.678;2023-03-04T15:00:44;101187.13;;;8.99;55.25
30073;BME280;16897;52.422;13.678;2023-03-04T15:04:46;101178.84;;;8.90;55.33
30073;BME280;16897;52.422;13.678;2023-03-04T15:13:06;101157.88;;;8.72;55.36
30073;BME280;16897;52.422;13.678;2023-03-04T15:21:35;101196.94;;;8.93;55.09
30073;BME280;16897;52.422;13.678;2023-03-04T15:25:37;101180.91;;;8.81;55.24
30073;BME280;16897;52.422;13.678;2023-03-04T15:29:39;101172.38;;;8.78;55.17
30073;BME280;16897;52.422;13.678;2023-03-04T15:33:41;101176.72;;;8.77;55.14
30073;BME280;16897;52.422;13.678;2023-03-04T15:37:43;101169.16;;;8.71;55.19
30073;BME280;16897;52.422;13.678;2023-03-04T15:41:45;101155.59;;;8.63;55.28
30073;BME280;16897;52.422;13.678;2023-03-04T15:45:49;101171.78;;;8.71;55.06
30073;BME280;16897;52.422;13.678;2023-03-04T15:49:51;101174.31;;;8.73;55.23
30073;BME280;16897;52.422;13.678;2023-03-04T15:53:55;101166.03;;;8.63;55.13
30073;BME280;16897;52.422;13.678;2023-03-04T15:57:58;101165.91;;;8.66;55.21
30073;BME280;16897;52.422;13.678;2023-03-04T16:02:00;101166.69;;;8.68;55.04
30073;BME280;16897;52.422;13.678;2023-03-04T16:06:02;101176.00;;;8.74;55.05
30073;BME280;16897;52.422;13.678;2023-03-04T16:10:12;101154.06;;;8.59;55.16
30073;BME280;16897;52.422;13.678;2023-03-04T16:14:15;101182.19;;;8.71;55.19
30073;BME280;16897;52.422;13.678;2023-03-04T16:18:17;101185.59;;;8.73;55.17
30073;BME280;16897;52.422;13.678;2023-03-04T16:22:21;101168.50;;;8.66;54.99
30073;BME280;16897;52.422;13.678;2023-03-04T16:26:25;101183.91;;;8.72;55.14
30073;BME280;16897;52.422;13.678;2023-03-04T16:30:28;101173.03;;;8.61;54.89
30073;BME280;16897;52.422;13.678;2023-03-04T16:34:30;101171.34;;;8.60;54.97
30073;BME280;16897;52.422;13.678;2023-03-04T16:38:32;101144.38;;;8.40;55.11
30073;BME280;16897;52.422;13.678;2023-03-04T16:42:33;101163.13;;;8.49;55.03
30073;BME280;16897;52.422;13.678;2023-03-04T16:46:35;101180.97;;;8.58;54.79
30073;BME280;16897;52.422;13.678;2023-03-04T16:50:37;101176.84;;;8.52;54.82
30073;BME280;16897;52.422;13.678;2023-03-04T16:54:38;101159.06;;;8.41;55.07
30073;BME280;16897;52.422;13.678;2023-03-04T16:58:41;101196.59;;;8.58;54.79
30073;BME280;16897;52.422;13.678;2023-03-04T17:02:43;101185.50;;;8.53;54.81
30073;BME280;16897;52.422;13.678;2023-03-04T17:06:45;101197.50;;;8.57;54.77
30073;BME280;16897;52.422;13.678;2023-03-04T17:10:46;101157.69;;;8.31;54.93
30073;BME280;16897;52.422;13.678;2023-03-04T17:14:48;101198.66;;;8.50;54.75
30073;BME280;16897;52.422;13.678;2023-03-04T17:18:50;101179.19;;;8.36;54.70
30073;BME280;16897;52.422;13.678;2023-03-04T17:22:52;101188.75;;;8.36;54.72
30073;BME280;16897;52.422;13.678;2023-03-04T17:26:54;101197.41;;;8.36;54.82
30073;BME280;16897;52.422;13.678;2023-03-04T17:30:55;101174.63;;;8.19;54.55
30073;BME280;16897;52.422;13.678;2023-03-04T17:34:58;101210.22;;;8.43;54.61
30073;BME280;16897;52.422;13.678;2023-03-04T17:39:00;101224.91;;;8.44;54.80
30073;BME280;16897;52.422;13.678;2023-03-04T17:43:02;101218.28;;;8.35;55.05
30073;BME280;16897;52.422;13.678;2023-03-04T17:47:07;101201.31;;;8.25;54.77
30073;BME280;16897;52.422;13.678;2023-03-04T17:51:09;101226.97;;;8.34;54.69
30073;BME280;16897;52.422;13.678;2023-03-04T17:55:11;101228.56;;;8.38;54.65
30073;BME280;16897;52.422;13.678;2023-03-04T17:59:14;101205.69;;;8.24;54.72
30073;BME280;16897;52.422;13.678;2023-03-04T18:03:16;101218.34;;;8.33;54.65
30073;BME280;16897;52.422;13.678;2023-03-04T18:07:18;101221.00;;;8.32;54.82
30073;BME280;16897;52.422;13.678;2023-03-04T18:11:21;101201.25;;;8.26;54.70
30073;BME280;16897;52.422;13.678;2023-03-04T18:15:22;101214.94;;;8.31;54.55
30073;BME280;16897;52.422;13.678;2023-03-04T18:19:24;101209.13;;;8.25;54.67
30073;BME280;16897;52.422;13.678;2023-03-04T18:23:27;101209.13;;;8.25;54.67
30073;BME280;16897;52.422;13.678;2023-03-04T18:27:28;101222.69;;;8.33;54.76
30073;BME280;16897;52.422;13.678;2023-03-04T18:31:30;101222.69;;;8.33;54.65
30073;BME280;16897;52.422;13.678;2023-03-04T18:35:34;101219.28;;;8.31;54.64
30073;BME280;16897;52.422;13.678;2023-03-04T18:39:36;101220.00;;;8.34;54.58
30073;BME280;16897;52.422;13.678;2023-03-04T18:43:38;101196.28;;;8.20;54.62
30073;BME280;16897;52.422;13.678;2023-03-04T18:47:41;101168.34;;;8.02;54.73
30073;BME280;16897;52.422;13.678;2023-03-04T18:51:44;101204.84;;;8.24;54.48
30073;BME280;16897;52.422;13.678;2023-03-04T18:55:45;101182.78;;;8.10;54.48
30073;BME280;16897;52.422;13.678;2023-03-04T19:00:05;101215.84;;;8.30;54.50
30073;BME280;16897;52.422;13.678;2023-03-04T19:04:07;101221.72;;;8.35;54.55
30073;BME280;16897;52.422;13.678;2023-03-04T19:08:10;101192.13;;;8.16;54.57
30073;BME280;16897;52.422;13.678;2023-03-04T19:12:13;101196.41;;;8.17;54.49
30073;BME280;16897;52.422;13.678;2023-03-04T19:16:15;101153.47;;;7.83;54.53
30073;BME280;16897;52.422;13.678;2023-03-04T19:20:16;101163.50;;;7.92;54.51
30073;BME280;16897;52.422;13.678;2023-03-04T19:24:18;101212.94;;;8.16;54.49
30073;BME280;16897;52.422;13.678;2023-03-04T19:28:20;101206.19;;;8.10;54.34
30073;BME280;16897;52.422;13.678;2023-03-04T19:32:21;101221.72;;;8.12;54.45
30073;BME280;16897;52.422;13.678;2023-03-04T19:36:23;101217.88;;;7.98;54.50
30073;BME280;16897;52.422;13.678;2023-03-04T19:40:27;101208.72;;;7.88;54.46
30073;BME280;16897;52.422;13.678;2023-03-04T19:44:28;101220.69;;;7.94;54.36
30073;BME280;16897;52.422;13.678;2023-03-04T19:48:30;101230.19;;;7.93;54.60
30073;BME280;16897;52.422;13.678;2023-03-04T19:52:32;101221.72;;;7.88;54.65
30073;BME280;16897;52.422;13.678;2023-03-04T19:56:34;101227.69;;;7.92;54.37
30073;BME280;16897;52.422;13.678;2023-03-04T20:00:35;101196.47;;;7.67;54.52
30073;BME280;16897;52.422;13.678;2023-03-04T20:04:37;101230.31;;;7.90;54.46
30073;BME280;16897;52.422;13.678;2023-03-04T20:08:38;101217.53;;;7.84;54.37
30073;BME280;16897;52.422;13.678;2023-03-04T20:12:40;101223.44;;;7.89;54.50
30073;BME280;16897;52.422;13.678;2023-03-04T20:16:41;101228.75;;;7.86;54.52
30073;BME280;16897;52.422;13.678;2023-03-04T20:20:43;101228.56;;;7.91;54.57
30073;BME280;16897;52.422;13.678;2023-03-04T20:24:45;101206.47;;;7.79;54.53
30073;BME280;16897;52.422;13.678;2023-03-04T20:28:46;101193.00;;;7.68;54.52
30073;BME280;16897;52.422;13.678;2023-03-04T20:32:47;101198.88;;;7.73;54.38
30073;BME280;16897;52.422;13.678;2023-03-04T20:36:49;101208.34;;;7.75;54.38
30073;BME280;16897;52.422;13.678;2023-03-04T20:40:50;101248.41;;;7.93;54.36
30073;BME280;16897;52.422;13.678;2023-03-04T20:44:52;101216.97;;;7.76;54.62
30073;BME280;16897;52.422;13.678;2023-03-04T20:48:55;101198.31;;;7.65;54.41
30073;BME280;16897;52.422;13.678;2023-03-04T20:52:57;101225.56;;;7.78;54.33
30073;BME280;16897;52.422;13.678;2023-03-04T20:56:58;101240.94;;;7.84;54.36
30073;BME280;16897;52.422;13.678;2023-03-04T21:01:00;101205.31;;;7.63;54.47
30073;BME280;16897;52.422;13.678;2023-03-04T21:05:02;101228.09;;;7.80;54.46
30073;BME280;16897;52.422;13.678;2023-03-04T21:09:09;101240.16;;;7.82;54.53
30073;BME280;16897;52.422;13.678;2023-03-04T21:13:11;101225.84;;;7.70;54.60
30073;BME280;16897;52.422;13.678;2023-03-04T21:17:17;101235.97;;;7.78;54.53
30073;BME280;16897;52.422;13.678;2023-03-04T21:21:26;101235.97;;;7.78;54.56
30073;BME280;16897;52.422;13.678;2023-03-04T21:25:29;101224.88;;;7.73;54.35
30073;BME280;16897;52.422;13.678;2023-03-04T21:29:31;101186.00;;;7.45;54.36
30073;BME280;16897;52.422;13.678;2023-03-04T21:33:33;101223.50;;;7.63;54.33
30073;BME280;16897;52.422;13.678;2023-03-04T21:37:37;101229.38;;;7.68;54.39
30073;BME280;16897;52.422;13.678;2023-03-04T21:41:38;101223.38;;;7.66;54.45
30073;BME280;16897;52.422;13.678;2023-03-04T21:45:40;101191.97;;;7.48;54.46
30073;BME280;16897;52.422;13.678;2023-03-04T21:49:41;101195.13;;;7.57;54.43
30073;BME280;16897;52.422;13.678;2023-03-04T21:53:42;101190.06;;;7.53;54.48
30073;BME280;16897;52.422;13.678;2023-03-04T21:57:44;101130.41;;;7.25;54.44
30073;BME280;16897;52.422;13.678;2023-03-04T22:01:45;101183.13;;;7.52;54.47
30073;BME280;16897;52.422;13.678;2023-03-04T22:05:47;101164.47;;;7.41;54.36
30073;BME280;16897;52.422;13.678;2023-03-04T22:09:49;101179.81;;;7.49;54.33
30073;BME280;16897;52.422;13.678;2023-03-04T22:13:55;101185.88;;;7.48;54.47
30073;BME280;16897;52.422;13.678;2023-03-04T22:17:56;101175.81;;;7.39;54.46
30073;BME280;16897;52.422;13.678;2023-03-04T22:21:58;101121.59;;;7.04;54.46
30073;BME280;16897;52.422;13.678;2023-03-04T22:30:10;101174.19;;;7.36;54.36
30073;BME280;16897;52.422;13.678;2023-03-04T22:34:13;101158.22;;;7.22;54.29
30073;BME280;16897;52.422;13.678;2023-03-04T22:38:15;101165.81;;;7.28;54.48
30073;BME280;16897;52.422;13.678;2023-03-04T22:42:16;101155.69;;;7.20;54.31
30073;BME280;16897;52.422;13.678;2023-03-04T22:46:23;101164.13;;;7.27;54.41
30073;BME280;16897;52.422;13.678;2023-03-04T22:50:25;101141.97;;;7.17;54.49
30073;BME280;16897;52.422;13.678;2023-03-04T22:54:26;101146.19;;;7.19;54.24
30073;BME280;16897;52.422;13.678;2023-03-04T22:58:30;101144.44;;;7.20;54.29
30073;BME280;16897;52.422;13.678;2023-03-04T23:02:31;101149.41;;;7.26;54.22
30073;BME280;16897;52.422;13.678;2023-03-04T23:06:33;101141.88;;;7.18;54.50
30073;BME280;16897;52.422;13.678;2023-03-04T23:10:34;101123.22;;;7.07;54.33
30073;BME280;16897;52.422;13.678;2023-03-04T23:14:36;101133.34;;;7.15;54.29
30073;BME280;16897;52.422;13.678;2023-03-04T23:18:39;101127.38;;;7.13;54.44
30073;BME280;16897;52.422;13.678;2023-03-04T23:22:42;101096.88;;;6.94;54.41